Time;durP1;ratioP1;P1;durP2;ratioP2;P2;SDS_P1;SDS_P2;PMS_P1;PMS_P2;Temp;Humidity;BMP_temperature;BMP_pressure;BME280_temperature;BME280_humidity;BME280_pressure;Samples;Min_cycle;Max_cycle;Signal;HPM_P1;HPM_P2
2022/04/11 00:02:16;;;;;;;10.63;2.22;;;;;;;;;;4976910;28;20022;-71
2022/04/11 00:04:45;;;;;;;11.77;2.50;;;;;;;;;;4995399;28;20033;-71
2022/04/11 00:07:12;;;;;;;10.30;2.42;;;;;;;;;;4977537;28;20041;-71
2022/04/11 00:09:39;;;;;;;11.20;2.90;;;;;;;;;;4980779;28;20033;-71
2022/04/11 00:12:07;;;;;;;13.60;2.33;;;;;;;;;;4974947;28;20030;-71
2022/04/11 00:14:36;;;;;;;9.82;2.50;;;;;;;;;;4978806;28;20042;-71
2022/04/11 00:17:05;;;;;;;12.68;2.92;;;;;;;;;;4970519;28;20045;-71
2022/04/11 00:19:33;;;;;;;13.02;2.30;;;;;;;;;;4972035;28;20025;-71
2022/04/11 00:21:59;;;;;;;11.73;2.70;;;;;;;;;;4957635;28;20700;-71
2022/04/11 00:24:28;;;;;;;8.10;2.10;;;;;;;;;;4979210;28;20056;-70
2022/04/11 00:26:55;;;;;;;10.13;2.08;;;;;;;;;;4976086;28;20026;-71
2022/04/11 00:29:23;;;;;;;13.00;2.55;;;;;;;;;;4959994;28;20145;-71
2022/04/11 00:31:49;;;;;;;14.35;2.35;;;;;;;;;;4982988;28;20519;-71
2022/04/11 00:34:15;;;;;;;12.18;2.42;;;;;;;;;;4958821;28;20030;-71
2022/04/11 00:36:41;;;;;;;10.10;2.03;;;;;;;;;;4964434;28;20029;-72
2022/04/11 00:39:07;;;;;;;10.95;2.20;;;;;;;;;;4975246;28;21103;-70
2022/04/11 00:41:34;;;;;;;11.02;2.50;;;;;;;;;;4972721;28;20042;-71
2022/04/11 00:44:01;;;;;;;15.38;2.60;;;;;;;;;;4973184;28;20468;-71
2022/04/11 00:46:27;;;;;;;11.75;2.28;;;;;;;;;;4961641;28;20116;-71
2022/04/11 00:48:53;;;;;;;12.38;2.60;;;;;;;;;;4974361;28;20381;-71
2022/04/11 00:51:24;;;;;;;9.63;2.30;;;;;;;;;;4958473;28;20057;-70
2022/04/11 00:53:52;;;;;;;7.70;2.05;;;;;;;;;;4975641;28;20030;-70
2022/04/11 00:56:19;;;;;;;12.45;2.10;;;;;;;;;;4960600;28;20441;-72
2022/04/11 00:58:46;;;;;;;8.50;2.05;;;;;;;;;;4958218;28;20544;-70
2022/04/11 01:01:17;;;;;;;10.05;1.83;;;;;;;;;;4955668;28;23751;-70
2022/04/11 01:03:44;;;;;;;13.77;2.25;;;;;;;;;;4971248;28;20030;-70
2022/04/11 01:06:10;;;;;;;9.10;2.00;;;;;;;;;;4984514;28;20131;-70
2022/04/11 01:08:37;;;;;;;11.80;2.35;;;;;;;;;;4994641;28;20037;-71
2022/04/11 01:11:03;;;;;;;10.00;2.05;;;;;;;;;;4993657;28;20317;-71
2022/04/11 01:13:30;;;;;;;10.40;2.20;;;;;;;;;;4988288;28;20029;-71
2022/04/11 01:16:02;;;;;;;8.95;1.85;;;;;;;;;;4993031;28;20144;-71
2022/04/11 01:18:29;;;;;;;13.98;2.60;;;;;;;;;;4983997;28;20045;-71
2022/04/11 01:20:55;;;;;;;12.75;2.72;;;;;;;;;;4992681;28;20025;-70
2022/04/11 01:23:22;;;;;;;14.50;2.63;;;;;;;;;;4997353;28;20033;-71
2022/04/11 01:25:53;;;;;;;12.90;1.70;;;;;;;;;;4976547;28;20025;-71
2022/04/11 01:28:21;;;;;;;12.38;2.20;;;;;;;;;;4983063;28;20368;-71
2022/04/11 01:30:51;;;;;;;9.25;1.80;;;;;;;;;;4993182;28;20037;-71
2022/04/11 01:33:21;;;;;;;9.02;1.63;;;;;;;;;;4994437;28;20033;-71
2022/04/11 01:35:51;;;;;;;9.20;2.20;;;;;;;;;;4995969;28;20116;-71
2022/04/11 01:38:17;;;;;;;9.25;2.10;;;;;;;;;;4951612;28;20061;-71
2022/04/11 01:40:48;;;;;;;7.72;1.70;;;;;;;;;;4950015;28;20042;-71
2022/04/11 01:43:16;;;;;;;9.13;2.08;;;;;;;;;;4948163;28;20222;-71
2022/04/11 01:45:42;;;;;;;7.75;1.52;;;;;;;;;;4950523;28;20191;-71
2022/04/11 01:48:10;;;;;;;13.52;2.05;;;;;;;;;;4948124;28;20049;-70
2022/04/11 01:50:38;;;;;;;14.25;2.10;;;;;;;;;;4919505;28;20038;-71
2022/04/11 01:53:11;;;;;;;9.45;1.65;;;;;;;;;;4930297;28;20038;-71
2022/04/11 01:55:38;;;;;;;10.77;2.20;;;;;;;;;;4952235;28;20065;-71
2022/04/11 01:58:06;;;;;;;8.02;1.73;;;;;;;;;;4945924;28;21146;-71
2022/04/11 02:00:34;;;;;;;11.10;2.45;;;;;;;;;;4918079;28;20142;-70
2022/04/11 02:03:03;;;;;;;10.18;1.80;;;;;;;;;;4930061;28;20042;-71
2022/04/11 02:05:31;;;;;;;11.55;2.15;;;;;;;;;;4950652;28;20050;-71
2022/04/11 02:07:58;;;;;;;9.95;2.15;;;;;;;;;;4944722;28;20528;-71
2022/04/11 02:10:27;;;;;;;11.05;2.40;;;;;;;;;;4922546;28;20444;-72
2022/04/11 02:12:55;;;;;;;11.85;1.65;;;;;;;;;;4930157;28;20584;-69
2022/04/11 02:15:22;;;;;;;9.50;2.28;;;;;;;;;;4948013;28;20101;-70
2022/04/11 02:17:53;;;;;;;10.38;1.77;;;;;;;;;;4949285;28;20034;-70
2022/04/11 02:20:21;;;;;;;11.10;2.28;;;;;;;;;;4932171;28;20120;-71
2022/04/11 02:22:54;;;;;;;11.68;1.92;;;;;;;;;;4954436;28;20085;-70
2022/04/11 02:25:24;;;;;;;10.10;1.88;;;;;;;;;;4948502;28;20382;-71
2022/04/11 02:27:54;;;;;;;10.15;2.03;;;;;;;;;;4930500;28;20066;-71
2022/04/11 02:30:25;;;;;;;8.45;1.80;;;;;;;;;;4929987;28;20400;-72
2022/04/11 02:32:52;;;;;;;10.73;1.90;;;;;;;;;;4923286;28;20203;-70
2022/04/11 02:35:19;;;;;;;10.27;1.75;;;;;;;;;;4942229;28;20039;-70
2022/04/11 02:37:46;;;;;;;10.07;2.22;;;;;;;;;;4945752;28;20042;-70
2022/04/11 02:40:12;;;;;;;;;;;;;;;;;;4944503;28;20089;-70
2022/04/11 02:42:41;;;;;;;11.23;2.25;;;;;;;;;;4961178;28;19963;-70
2022/04/11 02:45:09;;;;;;;10.25;2.17;;;;;;;;;;4989194;28;20373;-70
2022/04/11 02:47:35;;;;;;;11.07;2.20;;;;;;;;;;4995007;28;20029;-71
2022/04/11 02:50:01;;;;;;;13.07;1.88;;;;;;;;;;4991247;28;20773;-71
2022/04/11 02:52:29;;;;;;;12.90;2.40;;;;;;;;;;4992656;28;20102;-70
2022/04/11 02:54:58;;;;;;;9.98;2.03;;;;;;;;;;4998597;28;20135;-70
2022/04/11 02:57:24;;;;;;;10.15;2.10;;;;;;;;;;4998898;28;20674;-71
2022/04/11 02:59:51;;;;;;;8.50;1.80;;;;;;;;;;4996985;28;20033;-70
2022/04/11 03:02:17;;;;;;;11.40;2.10;;;;;;;;;;4995284;28;20121;-70
2022/04/11 03:04:45;;;;;;;10.40;1.98;;;;;;;;;;4996185;28;20029;-71
2022/04/11 03:07:11;;;;;;;9.98;1.50;;;;;;;;;;4989033;28;20088;-70
2022/04/11 03:09:38;;;;;;;10.63;2.03;;;;;;;;;;4993315;28;20022;-70
2022/04/11 03:12:04;;;;;;;;;;;;;;;;;;4988078;28;20921;-72
2022/04/11 03:14:30;;;;;;;6.72;1.50;;;;;;;;;;4995617;28;19921;-70
2022/04/11 03:16:57;;;;;;;11.57;1.73;;;;;;;;;;4993664;28;20025;-71
2022/04/11 03:19:23;;;;;;;8.15;1.80;;;;;;;;;;4996184;28;20574;-71
2022/04/11 03:21:49;;;;;;;7.68;1.75;;;;;;;;;;4997044;28;20104;-70
2022/04/11 03:24:15;;;;;;;9.15;1.83;;;;;;;;;;4993736;28;20083;-70
2022/04/11 03:26:41;;;;;;;9.02;1.98;;;;;;;;;;4998244;28;20495;-70
2022/04/11 03:29:09;;;;;;;9.32;2.10;;;;;;;;;;4994387;28;20040;-70
2022/04/11 03:31:36;;;;;;;11.82;1.92;;;;;;;;;;4998612;28;20044;-72
2022/04/11 03:34:03;;;;;;;10.20;2.20;;;;;;;;;;4995197;28;20037;-71
2022/04/11 03:36:34;;;;;;;11.88;2.00;;;;;;;;;;4998929;28;20030;-70
2022/04/11 03:39:03;;;;;;;8.25;1.80;;;;;;;;;;4996046;28;20515;-70
2022/04/11 03:41:33;;;;;;;10.43;2.08;;;;;;;;;;4997520;28;20535;-70
2022/04/11 03:44:01;;;;;;;9.38;2.13;;;;;;;;;;4992199;28;20120;-70
2022/04/11 03:46:28;;;;;;;11.50;2.38;;;;;;;;;;4984275;28;20029;-70
2022/04/11 03:48:57;;;;;;;11.18;1.80;;;;;;;;;;4990150;28;20041;-70
2022/04/11 03:51:24;;;;;;;10.88;1.95;;;;;;;;;;4995474;28;20029;-70
2022/04/11 03:53:57;;;;;;;9.15;1.80;;;;;;;;;;4996028;28;20037;-70
2022/04/11 03:56:25;;;;;;;9.85;2.13;;;;;;;;;;4971234;28;20331;-71
2022/04/11 03:58:55;;;;;;;9.93;1.98;;;;;;;;;;4998031;28;20056;-71
2022/04/11 04:01:22;;;;;;;10.88;2.05;;;;;;;;;;4995334;28;20132;-71
2022/04/11 04:03:50;;;;;;;11.90;2.08;;;;;;;;;;4993615;28;20038;-70
2022/04/11 04:06:17;;;;;;;12.52;2.60;;;;;;;;;;4986358;28;20060;-71
2022/04/11 04:08:46;;;;;;;10.73;1.80;;;;;;;;;;4983382;28;20026;-71
2022/04/11 04:11:13;;;;;;;11.20;2.20;;;;;;;;;;4977817;28;21895;-71
2022/04/11 04:13:40;;;;;;;13.43;2.15;;;;;;;;;;4985690;28;20041;-71
2022/04/11 04:16:08;;;;;;;9.13;1.90;;;;;;;;;;4979114;28;20034;-71
2022/04/11 04:18:35;;;;;;;11.90;1.98;;;;;;;;;;4979810;28;20112;-71
2022/04/11 04:21:04;;;;;;;11.05;1.80;;;;;;;;;;4979301;28;20025;-71
2022/04/11 04:23:31;;;;;;;9.43;1.60;;;;;;;;;;4983387;28;20140;-71
2022/04/11 04:25:59;;;;;;;12.07;2.20;;;;;;;;;;4978587;28;20046;-71
2022/04/11 04:28:28;;;;;;;12.80;2.00;;;;;;;;;;4967227;28;20421;-71
2022/04/11 04:30:54;;;;;;;9.55;1.70;;;;;;;;;;4980152;28;20033;-72
2022/04/11 04:33:22;;;;;;;7.80;1.73;;;;;;;;;;4982160;28;20120;-71
2022/04/11 04:35:48;;;;;;;11.68;2.05;;;;;;;;;;4970579;28;20037;-71
2022/04/11 04:38:15;;;;;;;11.70;2.17;;;;;;;;;;4981330;28;20044;-71
2022/04/11 04:40:41;;;;;;;12.55;2.10;;;;;;;;;;4978920;28;20018;-72
2022/04/11 04:43:08;;;;;;;12.57;2.08;;;;;;;;;;4959884;28;20046;-72
2022/04/11 04:45:37;;;;;;;12.60;2.38;;;;;;;;;;4983514;28;20037;-71
2022/04/11 04:48:03;;;;;;;10.57;1.80;;;;;;;;;;4993704;28;20037;-71
2022/04/11 04:50:29;;;;;;;11.63;2.30;;;;;;;;;;5002416;28;20021;-71
2022/04/11 04:52:56;;;;;;;11.23;2.05;;;;;;;;;;4984086;28;20108;-71
2022/04/11 04:55:23;;;;;;;19.92;2.90;;;;;;;;;;5003452;28;20033;-71
2022/04/11 04:57:49;;;;;;;18.52;3.00;;;;;;;;;;4989985;28;20060;-71
2022/04/11 05:00:16;;;;;;;11.38;2.22;;;;;;;;;;4982508;28;20111;-71
2022/04/11 05:02:43;;;;;;;;;;;;;;;;;;5002902;28;20029;-71
2022/04/11 05:05:11;;;;;;;10.48;2.28;;;;;;;;;;4986165;28;19913;-71
2022/04/11 05:07:38;;;;;;;13.43;2.15;;;;;;;;;;4983005;28;20461;-71
2022/04/11 05:10:04;;;;;;;9.48;1.92;;;;;;;;;;4982799;28;20096;-71
2022/04/11 05:12:41;;;;;;;12.80;2.05;;;;;;;;;;4998792;28;20030;-73
2022/04/11 05:15:07;;;;;;;10.85;2.30;;;;;;;;;;4971836;28;20780;-71
2022/04/11 05:17:33;;;;;;;12.25;2.33;;;;;;;;;;4985699;28;20511;-71
2022/04/11 05:20:00;;;;;;;13.88;2.47;;;;;;;;;;4991838;28;20346;-71
2022/04/11 05:22:26;;;;;;;11.77;2.20;;;;;;;;;;4994743;28;20045;-70
2022/04/11 05:24:52;;;;;;;10.20;2.65;;;;;;;;;;4994567;28;20107;-71
2022/04/11 05:27:18;;;;;;;;;;;;;;;;;;4999167;28;20821;-71
2022/04/11 05:29:44;;;;;;;13.35;2.10;;;;;;;;;;4994856;28;19921;-72
2022/04/11 05:32:12;;;;;;;14.27;2.95;;;;;;;;;;4991214;28;20033;-70
2022/04/11 05:34:39;;;;;;;11.55;2.58;;;;;;;;;;4995500;28;20029;-69
2022/04/11 05:37:07;;;;;;;12.32;2.40;;;;;;;;;;4981295;28;20038;-69
2022/04/11 05:39:34;;;;;;;14.77;2.83;;;;;;;;;;4989000;28;20034;-71
2022/04/11 05:42:02;;;;;;;16.15;2.72;;;;;;;;;;4984066;28;20034;-70
2022/04/11 05:44:28;;;;;;;19.95;3.10;;;;;;;;;;4987862;28;20030;-70
2022/04/11 05:46:55;;;;;;;10.82;2.80;;;;;;;;;;4969435;28;20030;-70
2022/04/11 05:49:23;;;;;;;17.80;2.83;;;;;;;;;;4987415;28;20537;-70
2022/04/11 05:51:51;;;;;;;17.23;3.25;;;;;;;;;;4988125;28;20087;-71
2022/04/11 05:54:19;;;;;;;20.48;3.35;;;;;;;;;;4988613;28;20064;-70
2022/04/11 05:56:46;;;;;;;18.95;3.30;;;;;;;;;;4974749;28;20045;-70
2022/04/11 05:59:14;;;;;;;20.42;2.75;;;;;;;;;;4988150;28;20313;-70
2022/04/11 06:01:40;;;;;;;17.85;2.75;;;;;;;;;;4990665;28;20026;-71
2022/04/11 06:04:07;;;;;;;14.65;2.92;;;;;;;;;;4983209;28;20040;-70
2022/04/11 06:06:33;;;;;;;11.93;2.72;;;;;;;;;;4990491;28;20048;-70
2022/04/11 06:08:59;;;;;;;16.33;2.85;;;;;;;;;;4987044;28;20077;-70
2022/04/11 06:11:26;;;;;;;15.02;2.72;;;;;;;;;;4993619;28;20056;-71
2022/04/11 06:13:52;;;;;;;15.15;2.58;;;;;;;;;;4978643;28;20069;-71
2022/04/11 06:16:20;;;;;;;23.27;3.95;;;;;;;;;;4998218;28;20033;-71
2022/04/11 06:18:48;;;;;;;20.20;3.72;;;;;;;;;;4989866;28;20498;-71
2022/04/11 06:21:15;;;;;;;14.13;2.85;;;;;;;;;;4989742;28;20163;-71
2022/04/11 06:23:42;;;;;;;12.65;2.90;;;;;;;;;;4999365;28;20112;-72
2022/04/11 06:26:09;;;;;;;16.08;3.70;;;;;;;;;;4988836;28;20529;-70
2022/04/11 06:28:37;;;;;;;15.25;3.28;;;;;;;;;;4990638;28;20038;-70
2022/04/11 06:31:03;;;;;;;17.45;3.55;;;;;;;;;;4989047;28;20439;-70
2022/04/11 06:33:31;;;;;;;;;;;;;;;;;;4989366;28;20061;-70
2022/04/11 06:35:57;;;;;;;15.38;3.33;;;;;;;;;;4988218;28;20489;-72
2022/04/11 06:38:24;;;;;;;15.05;3.25;;;;;;;;;;4983298;28;20026;-70
2022/04/11 06:40:51;;;;;;;14.77;3.80;;;;;;;;;;4972704;28;20135;-70
2022/04/11 06:43:17;;;;;;;17.90;3.70;;;;;;;;;;4975833;28;20025;-70
2022/04/11 06:45:43;;;;;;;16.63;3.90;;;;;;;;;;4984995;28;20412;-70
2022/04/11 06:48:10;;;;;;;16.95;4.75;;;;;;;;;;4983804;28;20105;-72
2022/04/11 06:50:35;;;;;;;;;;;;;;;;;;4986367;28;20044;-71
2022/04/11 06:53:02;;;;;;;13.55;3.28;;;;;;;;;;4965686;28;19963;-71
2022/04/11 06:55:28;;;;;;;14.25;4.03;;;;;;;;;;4968171;28;20521;-71
2022/04/11 06:57:54;;;;;;;;;;;;;;;;;;4989130;28;20029;-71
2022/04/11 07:00:20;;;;;;;18.27;3.88;;;;;;;;;;4993049;28;19913;-70
2022/04/11 07:02:46;;;;;;;15.18;3.25;;;;;;;;;;4988238;28;20045;-71
2022/04/11 07:05:13;;;;;;;22.05;3.72;;;;;;;;;;4982296;28;20045;-70
2022/04/11 07:07:39;;;;;;;16.48;3.00;;;;;;;;;;4973117;28;20045;-70
2022/04/11 07:10:07;;;;;;;17.52;3.42;;;;;;;;;;4942459;28;20064;-72
2022/04/11 07:12:36;;;;;;;13.18;3.10;;;;;;;;;;4984110;28;20034;-72
2022/04/11 07:15:03;;;;;;;20.30;3.05;;;;;;;;;;4991034;28;20123;-70
2022/04/11 07:17:29;;;;;;;13.43;2.85;;;;;;;;;;4995776;28;20040;-71
2022/04/11 07:19:55;;;;;;;16.73;3.65;;;;;;;;;;5001438;28;20026;-73
2022/04/11 07:22:22;;;;;;;15.82;3.60;;;;;;;;;;5001231;28;20802;-72
2022/04/11 07:24:48;;;;;;;;;;;;;;;;;;5004104;28;20112;-71
2022/04/11 07:27:14;;;;;;;15.18;2.90;;;;;;;;;;5001455;28;19974;-72
2022/04/11 07:29:40;;;;;;;15.73;3.42;;;;;;;;;;5000415;28;20500;-72
2022/04/11 07:32:07;;;;;;;;;;;;;;;;;;4995185;28;20033;-71
2022/04/11 07:34:35;;;;;;;14.77;3.03;;;;;;;;;;4999151;28;19924;-70
2022/04/11 07:37:01;;;;;;;16.23;3.25;;;;;;;;;;4998508;28;20021;-71
2022/04/11 07:39:29;;;;;;;11.50;2.67;;;;;;;;;;4999822;28;20032;-70
2022/04/11 07:41:56;;;;;;;13.95;2.88;;;;;;;;;;4987897;28;20360;-71
2022/04/11 07:44:22;;;;;;;15.38;3.28;;;;;;;;;;4997106;28;20037;-71
2022/04/11 07:46:49;;;;;;;15.32;3.20;;;;;;;;;;4946007;28;20022;-71
2022/04/11 07:49:16;;;;;;;;;;;;;;;;;;4946454;28;20033;-71
2022/04/11 07:51:43;;;;;;;14.88;3.40;;;;;;;;;;4953059;28;19913;-71
2022/04/11 07:54:10;;;;;;;13.40;3.70;;;;;;;;;;4922386;28;20419;-71
2022/04/11 07:56:36;;;;;;;15.23;3.10;;;;;;;;;;4944703;28;20407;-69
2022/04/11 07:59:03;;;;;;;13.45;3.10;;;;;;;;;;4943519;28;20026;-71
2022/04/11 08:01:29;;;;;;;14.57;2.95;;;;;;;;;;4947946;28;20691;-71
2022/04/11 08:03:57;;;;;;;13.32;2.38;;;;;;;;;;4945882;28;20040;-71
2022/04/11 08:06:24;;;;;;;13.90;3.33;;;;;;;;;;4940310;28;20714;-71
2022/04/11 08:08:51;;;;;;;16.95;3.13;;;;;;;;;;4933200;28;20896;-73
2022/04/11 08:11:20;;;;;;;18.95;4.22;;;;;;;;;;4937973;28;20061;-71
2022/04/11 08:13:47;;;;;;;16.80;4.10;;;;;;;;;;4929952;28;20568;-71
2022/04/11 08:16:13;;;;;;;22.08;3.83;;;;;;;;;;4931893;28;20473;-70
2022/04/11 08:18:41;;;;;;;;;;;;;;;;;;4938754;28;20038;-72
2022/04/11 08:21:08;;;;;;;17.20;3.60;;;;;;;;;;4938476;28;20305;-73
2022/04/11 08:23:35;;;;;;;16.95;4.43;;;;;;;;;;4973387;28;20250;-72
2022/04/11 08:26:03;;;;;;;20.35;4.30;;;;;;;;;;4967202;28;20034;-71
2022/04/11 08:28:30;;;;;;;14.60;3.90;;;;;;;;;;4981099;28;20155;-71
2022/04/11 08:30:56;;;;;;;17.48;4.70;;;;;;;;;;4980620;28;20065;-71
2022/04/11 08:33:23;;;;;;;15.50;4.78;;;;;;;;;;4974671;28;20038;-71
2022/04/11 08:35:49;;;;;;;19.40;4.13;;;;;;;;;;4996172;28;20030;-71
2022/04/11 08:38:15;;;;;;;12.32;3.60;;;;;;;;;;4996368;28;20040;-72
2022/04/11 08:40:41;;;;;;;14.48;4.70;;;;;;;;;;4980299;28;20804;-71
2022/04/11 08:43:07;;;;;;;;;;;;;;;;;;4989862;28;20728;-71
2022/04/11 08:45:34;;;;;;;16.45;4.03;;;;;;;;;;4985315;28;19940;-71
2022/04/11 08:48:00;;;;;;;;;;;;;;;;;;5001328;28;20124;-72
2022/04/11 08:50:27;;;;;;;15.00;4.57;;;;;;;;;;4997651;28;20454;-72
2022/04/11 08:52:54;;;;;;;18.42;5.25;;;;;;;;;;4973170;28;20403;-71
2022/04/11 08:55:23;;;;;;;17.90;5.25;;;;;;;;;;4980289;28;20684;-71
2022/04/11 08:57:50;;;;;;;17.42;4.55;;;;;;;;;;4996018;28;20037;-72
2022/04/11 09:00:20;;;;;;;13.82;4.40;;;;;;;;;;4996971;28;20021;-72
2022/04/11 09:02:46;;;;;;;14.65;3.47;;;;;;;;;;4995800;28;20466;-70
2022/04/11 09:05:12;;;;;;;;;;;;;;;;;;4992866;28;21135;-70
2022/04/11 09:07:50;;;;;;;18.98;3.67;;;;;;;;;;4990311;28;20521;-71
2022/04/11 09:10:26;;;;;;;16.17;5.05;;;;;;;;;;4974173;28;20045;-71
2022/04/11 09:13:00;;;;;;;17.17;3.92;;;;;;;;;;4971088;28;20072;-71
2022/04/11 09:15:26;;;;;;;16.45;3.40;;;;;;;;;;4988905;28;20036;-70
2022/04/11 09:17:54;;;;;;;13.88;3.60;;;;;;;;;;4988824;28;20072;-70
2022/04/11 09:20:24;;;;;;;17.35;3.72;;;;;;;;;;4966983;28;20349;-70
2022/04/11 09:22:50;;;;;;;17.40;3.95;;;;;;;;;;4976692;28;20037;-70
2022/04/11 09:25:18;;;;;;;17.48;4.40;;;;;;;;;;4983177;28;20041;-71
2022/04/11 09:27:44;;;;;;;19.38;5.10;;;;;;;;;;4987563;28;20416;-72
2022/04/11 09:30:27;;;;;;;18.13;4.30;;;;;;;;;;4985557;28;20076;-72
2022/04/11 09:33:01;;;;;;;18.48;4.40;;;;;;;;;;4987062;28;20025;-71
2022/04/11 09:35:35;;;;;;;15.75;3.92;;;;;;;;;;4988066;28;20063;-72
2022/04/11 09:38:20;;;;;;;13.38;3.67;;;;;;;;;;4985759;28;20696;-71
2022/04/11 09:40:53;;;;;;;18.25;3.15;;;;;;;;;;4988463;28;20034;-70
2022/04/11 09:43:30;;;;;;;14.38;3.42;;;;;;;;;;4969155;28;20471;-70
2022/04/11 09:45:57;;;;;;;;;;;;;;;;;;4986242;28;20831;-70
2022/04/11 09:48:26;;;;;;;13.88;3.03;;;;;;;;;;4985363;28;19913;-70
2022/04/11 09:50:54;;;;;;;14.27;2.92;;;;;;;;;;4985128;28;20032;-71
2022/04/11 09:53:24;;;;;;;11.65;3.20;;;;;;;;;;4984523;28;20058;-70
2022/04/11 09:55:55;;;;;;;14.88;3.20;;;;;;;;;;4981099;28;20113;-70
2022/04/11 09:58:23;;;;;;;13.45;2.95;;;;;;;;;;4983559;28;20037;-70
2022/04/11 10:00:51;;;;;;;13.75;3.00;;;;;;;;;;4983802;28;20075;-71
2022/04/11 10:03:23;;;;;;;14.32;4.45;;;;;;;;;;4971410;28;20034;-70
2022/04/11 10:05:51;;;;;;;13.23;4.20;;;;;;;;;;4991966;28;20043;-72
2022/04/11 10:08:19;;;;;;;16.60;3.58;;;;;;;;;;4986872;28;20290;-70
2022/04/11 10:10:48;;;;;;;18.60;5.45;;;;;;;;;;5004144;28;20049;-71
2022/04/11 10:13:16;;;;;;;14.30;5.63;;;;;;;;;;4988892;28;20026;-70
2022/04/11 10:15:46;;;;;;;24.35;6.65;;;;;;;;;;4988193;28;20504;-70
2022/04/11 10:18:17;;;;;;;20.02;6.50;;;;;;;;;;4999946;28;20038;-70
2022/04/11 10:20:47;;;;;;;19.73;4.13;;;;;;;;;;4991244;28;20115;-70
2022/04/11 10:23:29;;;;;;;17.27;3.78;;;;;;;;;;4986542;28;20148;-71
2022/04/11 10:25:58;;;;;;;18.52;5.03;;;;;;;;;;4997538;28;20384;-72
2022/04/11 10:28:27;;;;;;;15.57;5.90;;;;;;;;;;5002012;28;20725;-69
2022/04/11 10:31:06;;;;;;;26.42;5.68;;;;;;;;;;4995351;28;20119;-70
2022/04/11 10:33:46;;;;;;;25.58;5.35;;;;;;;;;;5004832;28;20440;-70
2022/04/11 10:36:31;;;;;;;23.20;11.63;;;;;;;;;;5002145;28;22795;-70
2022/04/11 10:39:15;;;;;;;21.83;8.73;;;;;;;;;;5002640;28;20037;-71
2022/04/11 10:41:57;;;;;;;23.08;5.28;;;;;;;;;;5007529;28;20716;-70
2022/04/11 10:44:37;;;;;;;18.55;4.70;;;;;;;;;;5008235;28;20435;-71
2022/04/11 10:47:09;;;;;;;15.38;4.65;;;;;;;;;;4984355;28;20038;-71
2022/04/11 10:49:45;;;;;;;15.18;4.40;;;;;;;;;;5004256;28;20041;-71
2022/04/11 10:52:31;;;;;;;15.63;3.42;;;;;;;;;;5000114;28;20061;-71
2022/04/11 10:54:58;;;;;;;14.30;4.30;;;;;;;;;;5005855;28;20033;-71
2022/04/11 10:57:37;;;;;;;19.20;4.03;;;;;;;;;;4996630;28;20582;-71
2022/04/11 11:00:07;;;;;;;14.48;3.50;;;;;;;;;;5000994;28;20869;-71
2022/04/11 11:02:56;;;;;;;17.20;3.83;;;;;;;;;;5009508;28;20036;-71
2022/04/11 11:05:28;;;;;;;21.48;5.20;;;;;;;;;;5002331;28;20132;-70
2022/04/11 11:08:09;;;;;;;19.92;5.00;;;;;;;;;;4967534;28;20030;-70
2022/04/11 11:10:45;;;;;;;24.75;5.50;;;;;;;;;;4983206;28;20136;-70
2022/04/11 11:13:27;;;;;;;28.40;4.73;;;;;;;;;;4975499;28;20551;-70
2022/04/11 11:15:55;;;;;;;23.50;5.28;;;;;;;;;;4979760;28;20124;-70
2022/04/11 11:18:21;;;;;;;13.15;3.83;;;;;;;;;;4983233;28;20034;-71
2022/04/11 11:20:57;;;;;;;14.23;4.03;;;;;;;;;;4983000;28;20081;-70
2022/04/11 11:23:30;;;;;;;14.05;4.15;;;;;;;;;;4986376;28;20113;-70
2022/04/11 11:26:06;;;;;;;13.23;3.60;;;;;;;;;;4982043;28;20030;-72
2022/04/11 11:28:33;;;;;;;12.45;3.65;;;;;;;;;;4985690;28;20058;-72
2022/04/11 11:31:01;;;;;;;13.95;4.30;;;;;;;;;;4982704;28;20636;-70
2022/04/11 11:33:28;;;;;;;16.35;4.47;;;;;;;;;;4979834;28;20436;-70
2022/04/11 11:35:56;;;;;;;25.67;6.22;;;;;;;;;;4972611;28;20384;-71
2022/04/11 11:38:29;;;;;;;27.85;6.00;;;;;;;;;;4987689;28;20215;-71
2022/04/11 11:41:04;;;;;;;19.63;5.32;;;;;;;;;;4983306;28;20029;-71
2022/04/11 11:43:31;;;;;;;18.80;4.68;;;;;;;;;;4986167;28;21225;-72
2022/04/11 11:45:59;;;;;;;16.98;3.88;;;;;;;;;;4971629;28;20369;-70
2022/04/11 11:48:30;;;;;;;17.83;3.92;;;;;;;;;;4984463;28;20061;-70
2022/04/11 11:50:59;;;;;;;26.20;4.85;;;;;;;;;;4988599;28;20022;-70
2022/04/11 11:53:39;;;;;;;17.90;4.03;;;;;;;;;;4973366;28;20433;-70
2022/04/11 11:56:09;;;;;;;18.17;4.53;;;;;;;;;;4981990;28;20492;-70
2022/04/11 11:58:39;;;;;;;55.78;7.85;;;;;;;;;;4979446;28;20400;-72
2022/04/11 12:01:09;;;;;;;25.98;4.75;;;;;;;;;;4984495;28;20500;-71
2022/04/11 12:06:24;;;;;;;14.38;3.10;;;;;;;;;;4982939;28;20053;-72
2022/04/11 12:08:58;;;;;;;26.50;3.97;;;;;;;;;;4991447;28;20255;-71
2022/04/11 12:11:26;;;;;;;26.10;4.45;;;;;;;;;;4998332;28;20529;-71
2022/04/11 12:14:07;;;;;;;19.75;3.90;;;;;;;;;;4995484;28;20048;-72
2022/04/11 12:16:36;;;;;;;16.73;3.42;;;;;;;;;;4996453;28;20061;-70
2022/04/11 12:19:05;;;;;;;21.83;3.97;;;;;;;;;;4989518;28;20602;-70
2022/04/11 12:21:39;;;;;;;26.15;4.63;;;;;;;;;;5006324;28;20037;-70
2022/04/11 12:24:09;;;;;;;15.43;3.88;;;;;;;;;;4998723;28;20035;-70
2022/04/11 12:26:38;;;;;;;11.73;2.90;;;;;;;;;;5006082;28;20074;-72
2022/04/11 12:29:15;;;;;;;12.52;3.08;;;;;;;;;;5002049;28;20033;-70
2022/04/11 12:31:57;;;;;;;23.55;4.28;;;;;;;;;;4989814;28;20338;-71
2022/04/11 12:34:39;;;;;;;18.45;3.70;;;;;;;;;;5004902;28;20112;-72
2022/04/11 12:37:07;;;;;;;16.77;3.63;;;;;;;;;;4988922;28;20106;-72
2022/04/11 12:39:48;;;;;;;15.05;3.47;;;;;;;;;;4992053;28;20029;-71
2022/04/11 12:42:21;;;;;;;14.18;3.55;;;;;;;;;;5001938;28;20108;-71
2022/04/11 12:44:48;;;;;;;16.05;3.50;;;;;;;;;;5005169;28;20538;-71
2022/04/11 12:47:14;;;;;;;22.42;3.33;;;;;;;;;;4989851;28;20056;-72
2022/04/11 12:49:44;;;;;;;18.00;3.70;;;;;;;;;;5010234;28;20025;-71
2022/04/11 12:52:11;;;;;;;13.60;3.08;;;;;;;;;;4999547;28;20037;-72
2022/04/11 12:54:37;;;;;;;12.55;3.10;;;;;;;;;;5011266;28;20029;-71
2022/04/11 12:57:04;;;;;;;14.68;3.03;;;;;;;;;;5006384;28;20091;-73
2022/04/11 12:59:32;;;;;;;14.55;3.50;;;;;;;;;;5005197;28;20105;-71
2022/04/11 13:02:06;;;;;;;12.77;3.60;;;;;;;;;;5001687;28;20036;-72
2022/04/11 13:04:33;;;;;;;13.00;3.50;;;;;;;;;;5003465;28;20109;-70
2022/04/11 13:06:59;;;;;;;13.57;3.28;;;;;;;;;;5007733;28;20411;-73
2022/04/11 13:09:25;;;;;;;13.40;3.28;;;;;;;;;;5012806;28;20640;-73
2022/04/11 13:11:52;;;;;;;13.45;3.22;;;;;;;;;;4994126;28;20160;-72
2022/04/11 13:14:18;;;;;;;12.35;3.03;;;;;;;;;;5009912;28;20033;-73
2022/04/11 13:19:29;;;;;;;14.38;3.42;;;;;;;;;;5010380;28;20071;-72
2022/04/11 13:21:55;;;;;;;13.60;3.47;;;;;;;;;;5008261;28;20038;-74
2022/04/11 13:24:22;;;;;;;14.15;3.50;;;;;;;;;;4993797;28;20028;-73
2022/04/11 13:26:48;;;;;;;15.65;3.80;;;;;;;;;;5009589;28;20777;-73
2022/04/11 13:29:14;;;;;;;13.68;3.30;;;;;;;;;;4989266;28;20444;-73
2022/04/11 13:31:42;;;;;;;10.52;2.80;;;;;;;;;;5008509;28;20081;-72
2022/04/11 13:34:10;;;;;;;12.82;3.55;;;;;;;;;;5005724;28;20033;-73
2022/04/11 13:36:37;;;;;;;15.07;3.63;;;;;;;;;;5011243;28;20029;-73
2022/04/11 13:39:05;;;;;;;14.82;3.28;;;;;;;;;;5003903;28;20029;-73
2022/04/11 13:41:34;;;;;;;13.02;3.72;;;;;;;;;;5009738;28;20025;-73
2022/04/11 13:44:01;;;;;;;14.38;3.65;;;;;;;;;;5006034;28;20037;-71
2022/04/11 13:46:29;;;;;;;16.95;3.78;;;;;;;;;;5011428;28;20418;-74
2022/04/11 13:48:56;;;;;;;12.68;3.40;;;;;;;;;;5006123;28;20692;-74
2022/04/11 13:51:24;;;;;;;12.75;2.95;;;;;;;;;;5010726;28;20044;-74
2022/04/11 13:53:54;;;;;;;13.35;3.30;;;;;;;;;;5012785;28;20033;-73
2022/04/11 13:56:22;;;;;;;14.55;3.22;;;;;;;;;;5011294;28;20029;-75
2022/04/11 13:58:49;;;;;;;16.88;3.85;;;;;;;;;;4992716;28;20096;-73
2022/04/11 14:01:16;;;;;;;16.10;3.60;;;;;;;;;;5005002;28;20146;-73
2022/04/11 14:03:44;;;;;;;12.43;3.08;;;;;;;;;;5011901;28;20034;-73
2022/04/11 14:06:10;;;;;;;14.85;4.38;;;;;;;;;;5004803;28;20496;-73
2022/04/11 14:08:38;;;;;;;14.20;3.85;;;;;;;;;;5001198;28;20108;-74
2022/04/11 14:11:04;;;;;;;17.35;3.72;;;;;;;;;;4995263;28;20032;-73
2022/04/11 14:13:34;;;;;;;14.30;3.53;;;;;;;;;;5008008;28;20574;-73
2022/04/11 14:16:01;;;;;;;15.20;3.72;;;;;;;;;;4985041;28;20034;-73
2022/04/11 14:18:29;;;;;;;15.05;3.78;;;;;;;;;;5005177;28;20029;-74
2022/04/11 14:20:57;;;;;;;13.75;3.20;;;;;;;;;;4981067;28;20571;-75
2022/04/11 14:23:27;;;;;;;15.48;3.50;;;;;;;;;;5000644;28;20481;-74
2022/04/11 14:25:55;;;;;;;16.88;4.30;;;;;;;;;;5001015;28;20042;-75
2022/04/11 14:28:23;;;;;;;19.30;4.63;;;;;;;;;;4994965;28;20254;-74
2022/04/11 14:30:50;;;;;;;15.25;3.80;;;;;;;;;;5003221;28;20044;-74
2022/04/11 14:33:17;;;;;;;14.68;4.10;;;;;;;;;;4974687;28;20507;-74
2022/04/11 14:35:44;;;;;;;17.70;3.40;;;;;;;;;;4972438;28;20045;-74
2022/04/11 14:38:10;;;;;;;16.65;3.97;;;;;;;;;;4986041;28;20539;-74
2022/04/11 14:40:37;;;;;;;19.00;3.95;;;;;;;;;;5009771;28;20594;-74
2022/04/11 14:43:03;;;;;;;17.63;3.75;;;;;;;;;;4984991;28;20037;-74
2022/04/11 14:45:29;;;;;;;15.55;3.45;;;;;;;;;;4974066;28;20072;-74
2022/04/11 14:47:56;;;;;;;18.67;3.58;;;;;;;;;;5003199;28;20073;-75
2022/04/11 14:50:23;;;;;;;14.15;3.50;;;;;;;;;;5008700;28;20714;-74